createdAt,value
2023-09-28T00:00:39.998Z,15.26
2023-09-28T00:03:11.366Z,15.28
2023-09-28T00:05:44.126Z,15.29
2023-09-28T00:08:16.013Z,15.35
2023-09-28T00:10:45.503Z,15.34
2023-09-28T00:13:14.808Z,15.31
2023-09-28T00:15:43.833Z,15.28
2023-09-28T00:18:15.416Z,15.30
2023-09-28T00:20:47.382Z,15.31
2023-09-28T00:23:18.986Z,15.32
2023-09-28T00:25:48.307Z,15.28
2023-09-28T00:28:17.764Z,15.18
2023-09-28T00:30:50.043Z,15.30
2023-09-28T00:33:21.999Z,15.27
2023-09-28T00:35:51.050Z,15.29
2023-09-28T00:38:20.224Z,15.29
2023-09-28T00:40:52.025Z,15.30
2023-09-28T00:43:26.976Z,15.29
2023-09-28T00:45:56.112Z,15.29
2023-09-28T00:48:26.314Z,15.08
2023-09-28T00:50:53.700Z,15.28
2023-09-28T00:53:28.638Z,15.17
2023-09-28T00:56:01.749Z,15.17
2023-09-28T00:58:30.994Z,15.17
2023-09-28T01:01:05.249Z,15.22
2023-09-28T01:03:36.577Z,15.21
2023-09-28T01:06:09.092Z,15.22
2023-09-28T01:08:38.466Z,15.20
2023-09-28T01:11:07.781Z,15.15
2023-09-28T01:13:40.624Z,15.23
2023-09-28T01:16:10.632Z,15.21
2023-09-28T01:18:37.606Z,15.22
2023-09-28T01:21:07.852Z,15.12
2023-09-28T01:23:41.200Z,15.22
2023-09-28T01:26:10.318Z,15.17
2023-09-28T01:28:39.906Z,15.19
2023-09-28T01:31:11.588Z,15.27
2023-09-28T01:33:44.112Z,15.29
2023-09-28T01:36:15.917Z,15.28
2023-09-28T01:39:01.904Z,15.22
2023-09-28T01:41:35.986Z,15.22
2023-09-28T01:44:05.119Z,15.28
2023-09-28T01:46:32.070Z,15.29
2023-09-28T01:48:59.508Z,15.29
2023-09-28T01:51:28.964Z,15.30
2023-09-28T01:54:02.957Z,15.31
2023-09-28T01:56:36.998Z,15.32
2023-09-28T01:59:06.488Z,15.32
2023-09-28T02:01:35.840Z,15.31
2023-09-28T02:04:02.700Z,15.31
2023-09-28T02:06:31.865Z,15.29
2023-09-28T02:09:01.034Z,15.28
2023-09-28T02:11:30.147Z,15.25
2023-09-28T02:14:00.064Z,15.25
2023-09-28T02:16:28.042Z,15.14
2023-09-28T02:18:57.223Z,15.23
2023-09-28T02:21:31.357Z,15.24
2023-09-28T02:24:06.216Z,15.23
2023-09-28T02:26:35.457Z,15.15
2023-09-28T02:29:02.499Z,15.12
2023-09-28T02:31:39.038Z,15.08
2023-09-28T02:34:08.694Z,15.14
2023-09-28T02:36:38.115Z,15.05
2023-09-28T02:39:06.908Z,15.10
2023-09-28T02:41:36.894Z,15.08
2023-09-28T02:44:07.024Z,15.05
2023-09-28T02:46:39.491Z,15.00
2023-09-28T02:49:09.979Z,15.13
2023-09-28T02:51:36.782Z,15.13
2023-09-28T02:54:06.791Z,15.12
2023-09-28T02:56:41.453Z,15.08
2023-09-28T02:59:08.938Z,15.11
2023-09-28T03:01:37.995Z,15.06
2023-09-28T03:04:09.692Z,15.03
2023-09-28T03:06:41.799Z,15.11
2023-09-28T03:09:10.906Z,15.08
2023-09-28T03:11:42.661Z,15.07
2023-09-28T03:14:12.354Z,15.09
2023-09-28T03:16:44.129Z,14.98
2023-09-28T03:19:15.648Z,15.08
2023-09-28T03:21:50.567Z,15.04
2023-09-28T03:24:19.631Z,15.03
2023-09-28T03:27:00.297Z,15.05
2023-09-28T03:29:37.186Z,14.95
2023-09-28T03:32:04.069Z,14.99
2023-09-28T03:34:36.353Z,14.99
2023-09-28T03:37:05.842Z,14.97
2023-09-28T03:39:35.080Z,14.84
2023-09-28T03:42:04.330Z,14.92
2023-09-28T03:44:36.036Z,14.90
2023-09-28T03:47:11.362Z,14.84
2023-09-28T03:49:39.057Z,14.78
2023-09-28T03:52:08.313Z,14.76
2023-09-28T03:54:35.089Z,14.74
2023-09-28T03:57:04.761Z,14.72
2023-09-28T03:59:34.613Z,14.58
2023-09-28T04:02:01.635Z,14.72
2023-09-28T04:04:31.474Z,14.72
2023-09-28T04:07:02.956Z,14.71
2023-09-28T04:09:30.653Z,14.67
2023-09-28T04:12:05.288Z,14.62
2023-09-28T04:14:34.882Z,14.56
2023-09-28T04:17:02.127Z,14.53
2023-09-28T04:19:36.832Z,14.52
2023-09-28T04:22:03.622Z,14.54
2023-09-28T04:24:34.906Z,14.47
2023-09-28T04:27:04.022Z,14.53
2023-09-28T04:29:33.344Z,14.45
2023-09-28T04:32:03.106Z,14.42
2023-09-28T04:34:32.600Z,14.40
2023-09-28T04:36:59.551Z,14.47
2023-09-28T04:39:31.352Z,14.43
2023-09-28T04:41:59.709Z,14.39
2023-09-28T04:44:31.146Z,14.36
2023-09-28T04:47:00.232Z,14.27
2023-09-28T04:49:32.105Z,14.38
2023-09-28T04:52:00.640Z,14.25
2023-09-28T04:54:29.607Z,14.32
2023-09-28T04:57:01.641Z,14.28
2023-09-28T04:59:33.655Z,14.28
2023-09-28T05:02:02.663Z,14.27
2023-09-28T05:04:32.150Z,14.26
2023-09-28T05:07:01.743Z,14.23
2023-09-28T05:09:28.946Z,14.27
2023-09-28T05:11:57.672Z,14.24
2023-09-28T05:14:26.946Z,14.22
2023-09-28T05:16:55.922Z,14.22
2023-09-28T05:19:31.695Z,14.17
2023-09-28T05:21:58.714Z,14.19
2023-09-28T05:24:25.669Z,14.21
2023-09-28T05:26:52.545Z,14.20
2023-09-28T05:29:19.367Z,14.19
2023-09-28T05:31:48.732Z,14.19
2023-09-28T05:34:20.716Z,14.17
2023-09-28T05:36:47.562Z,14.18
2023-09-28T05:39:19.897Z,14.15
2023-09-28T05:41:47.299Z,14.18
2023-09-28T05:44:18.747Z,14.19
2023-09-28T05:46:45.555Z,14.21
2023-09-28T05:49:17.221Z,14.24
2023-09-28T05:51:49.544Z,14.24
2023-09-28T05:54:20.958Z,14.24
2023-09-28T05:56:52.676Z,14.23
2023-09-28T05:59:21.812Z,14.29
2023-09-28T06:01:50.260Z,14.31
2023-09-28T06:04:19.443Z,14.32
2023-09-28T06:06:51.891Z,14.27
2023-09-28T06:09:25.433Z,14.32
2023-09-28T06:11:58.824Z,14.41
2023-09-28T06:14:29.247Z,14.39
2023-09-28T06:16:58.405Z,14.48
2023-09-28T06:19:29.806Z,14.47
2023-09-28T06:22:02.226Z,14.57
2023-09-28T06:24:31.507Z,14.64
2023-09-28T06:26:58.485Z,14.66
2023-09-28T06:29:32.462Z,14.71
2023-09-28T06:32:02.852Z,14.70
2023-09-28T06:34:31.975Z,14.71
2023-09-28T06:37:03.474Z,14.86
2023-09-28T06:39:32.806Z,14.90
2023-09-28T06:42:16.599Z,14.95
2023-09-28T06:44:54.553Z,15.00
2023-09-28T06:47:27.502Z,15.06
2023-09-28T06:50:01.235Z,15.13
2023-09-28T06:52:34.265Z,15.18
2023-09-28T06:55:09.234Z,15.24
2023-09-28T06:57:38.551Z,15.29
2023-09-28T07:00:11.017Z,15.23
2023-09-28T07:02:38.164Z,15.36
2023-09-28T07:05:07.596Z,15.37
2023-09-28T07:07:36.797Z,15.43
2023-09-28T07:10:06.186Z,15.55
2023-09-28T07:12:33.037Z,15.58
2023-09-28T07:14:59.935Z,15.65
2023-09-28T07:17:31.605Z,15.71
2023-09-28T07:20:06.633Z,15.59
2023-09-28T07:22:40.849Z,15.74
2023-09-28T07:25:10.615Z,15.86
2023-09-28T07:27:42.261Z,15.90
2023-09-28T07:30:14.114Z,15.89
2023-09-28T07:32:43.304Z,16.01
2023-09-28T07:35:13.128Z,16.02
2023-09-28T07:37:48.463Z,16.12
2023-09-28T07:40:40.663Z,16.15
2023-09-28T07:43:17.386Z,16.16
2023-09-28T07:45:51.614Z,16.27
2023-09-28T07:48:23.102Z,16.34
2023-09-28T07:50:50.143Z,16.40
2023-09-28T07:53:20.785Z,16.45
2023-09-28T07:55:50.152Z,16.52
2023-09-28T07:58:26.277Z,16.63
2023-09-28T08:01:03.024Z,16.74
2023-09-28T08:03:36.113Z,16.80
2023-09-28T08:06:05.181Z,16.89
2023-09-28T08:08:32.309Z,16.97
2023-09-28T08:11:00.823Z,16.97
2023-09-28T08:13:30.124Z,16.98
2023-09-28T08:15:57.048Z,17.19
2023-09-28T08:18:27.752Z,17.28
2023-09-28T08:21:09.334Z,17.37
2023-09-28T08:23:41.816Z,17.34
2023-09-28T08:26:13.666Z,17.48
2023-09-28T08:28:42.794Z,17.52
2023-09-28T08:31:13.418Z,17.59
2023-09-28T08:33:42.660Z,17.63
2023-09-28T08:36:12.001Z,17.65
2023-09-28T08:38:43.796Z,17.73
2023-09-28T08:41:14.311Z,17.73
2023-09-28T08:43:44.642Z,17.88
2023-09-28T08:46:16.342Z,17.94
2023-09-28T08:48:48.907Z,17.96
2023-09-28T08:51:19.862Z,18.04
2023-09-28T08:53:51.840Z,18.08
2023-09-28T08:56:21.405Z,18.13
2023-09-28T08:58:51.243Z,18.22
2023-09-28T09:01:19.115Z,18.27
2023-09-28T09:03:51.622Z,18.29
2023-09-28T09:06:23.867Z,18.35
2023-09-28T09:09:01.827Z,18.47
2023-09-28T09:11:36.400Z,18.52
2023-09-28T09:14:08.104Z,18.57
2023-09-28T09:16:40.319Z,18.63
2023-09-28T09:19:18.163Z,18.66
2023-09-28T09:21:51.281Z,18.71
2023-09-28T09:24:25.164Z,18.75
2023-09-28T09:26:54.829Z,18.77
2023-09-28T09:29:24.085Z,18.79
2023-09-28T09:31:55.892Z,18.87
2023-09-28T09:34:27.604Z,18.99
2023-09-28T09:37:03.321Z,19.05
2023-09-28T09:39:33.472Z,19.11
2023-09-28T09:42:05.499Z,19.13
2023-09-28T09:44:37.024Z,19.21
2023-09-28T09:47:08.796Z,19.21
2023-09-28T09:49:38.559Z,19.33
2023-09-28T09:52:09.594Z,19.37
2023-09-28T09:54:37.835Z,19.41
2023-09-28T09:57:13.125Z,19.38
2023-09-28T09:59:48.231Z,19.54
2023-09-28T10:02:28.206Z,19.59
2023-09-28T10:05:03.036Z,19.58
2023-09-28T10:07:47.419Z,19.69
2023-09-28T10:10:20.670Z,19.72
2023-09-28T10:12:53.598Z,19.81
2023-09-28T10:15:20.806Z,19.80
2023-09-28T10:17:55.416Z,19.90
2023-09-28T10:20:25.399Z,19.81
2023-09-28T10:22:52.351Z,19.93
2023-09-28T10:25:23.876Z,19.97
2023-09-28T10:27:58.422Z,20.06
2023-09-28T10:30:26.866Z,20.07
2023-09-28T10:32:58.973Z,20.26
2023-09-28T10:35:32.841Z,20.34
2023-09-28T10:38:24.378Z,20.39
2023-09-28T10:41:04.274Z,20.45
2023-09-28T10:43:40.244Z,20.55
2023-09-28T10:46:14.260Z,20.58
2023-09-28T10:48:48.170Z,20.79
2023-09-28T10:51:21.706Z,20.89
2023-09-28T10:53:53.182Z,20.99
2023-09-28T10:56:28.821Z,21.02
2023-09-28T10:59:03.059Z,21.17
2023-09-28T11:01:34.799Z,21.25
2023-09-28T11:04:05.325Z,21.41
2023-09-28T11:06:42.605Z,21.49
2023-09-28T11:09:15.708Z,21.57
2023-09-28T11:11:44.995Z,21.65
2023-09-28T11:14:17.162Z,21.70
2023-09-28T11:16:50.846Z,21.77
2023-09-28T11:19:25.277Z,21.91
2023-09-28T11:21:56.894Z,21.98
2023-09-28T11:24:23.716Z,22.07
2023-09-28T11:26:58.057Z,22.16
2023-09-28T11:29:30.077Z,22.19
2023-09-28T11:31:57.119Z,22.30
2023-09-28T11:34:39.310Z,22.43
2023-09-28T11:37:12.536Z,22.44
2023-09-28T11:39:40.486Z,22.55
2023-09-28T11:42:09.654Z,22.60
2023-09-28T11:44:38.276Z,22.62
2023-09-28T11:47:09.253Z,22.67
2023-09-28T11:49:43.933Z,22.71
2023-09-28T11:52:16.247Z,22.72
2023-09-28T11:54:49.255Z,22.68
2023-09-28T11:57:21.771Z,22.69
2023-09-28T11:59:55.721Z,22.75
2023-09-28T12:02:27.681Z,22.80
2023-09-28T12:04:59.533Z,22.76
2023-09-28T12:07:28.639Z,22.86
2023-09-28T12:10:04.535Z,22.92
2023-09-28T12:12:34.859Z,22.97
2023-09-28T12:15:12.331Z,22.93
2023-09-28T12:17:42.537Z,23.03
2023-09-28T12:20:14.048Z,23.03
2023-09-28T12:22:51.456Z,23.02
2023-09-28T12:25:19.534Z,23.00
2023-09-28T12:27:48.858Z,23.06
2023-09-28T12:30:23.819Z,23.07
2023-09-28T12:32:54.745Z,23.14
2023-09-28T12:35:26.643Z,23.17
2023-09-28T12:38:03.894Z,23.21
2023-09-28T12:40:35.554Z,23.21
2023-09-28T12:43:11.208Z,23.24
2023-09-28T12:45:40.551Z,23.27
2023-09-28T12:48:07.501Z,23.26
2023-09-28T12:50:38.781Z,23.30
2023-09-28T12:53:13.186Z,23.32
2023-09-28T12:55:44.955Z,23.31
2023-09-28T12:58:14.883Z,23.31
2023-09-28T13:00:41.842Z,23.35
2023-09-28T13:03:13.634Z,23.36
2023-09-28T13:05:44.098Z,23.47
2023-09-28T13:08:14.836Z,23.46
2023-09-28T13:10:45.403Z,23.50
2023-09-28T13:13:17.172Z,23.53
2023-09-28T13:15:48.901Z,23.57
2023-09-28T13:18:16.540Z,23.58
2023-09-28T13:20:44.697Z,23.60
2023-09-28T13:23:12.372Z,23.53
2023-09-28T13:25:46.759Z,23.60
2023-09-28T13:28:18.386Z,23.61
2023-09-28T13:30:57.300Z,23.62
2023-09-28T13:33:26.701Z,23.58
2023-09-28T13:35:57.336Z,23.56
2023-09-28T13:38:26.624Z,23.50
2023-09-28T13:41:03.549Z,23.53
2023-09-28T13:43:40.009Z,23.49
2023-09-28T13:46:11.451Z,23.46
2023-09-28T13:48:38.428Z,23.43
2023-09-28T13:51:08.270Z,23.41
2023-09-28T13:53:38.654Z,23.36
2023-09-28T13:56:08.770Z,23.39
2023-09-28T13:58:39.834Z,23.34
2023-09-28T14:01:15.390Z,23.36
2023-09-28T14:03:44.790Z,23.34
2023-09-28T14:06:16.279Z,23.32
2023-09-28T14:08:45.553Z,23.34
2023-09-28T14:11:14.970Z,23.32
2023-09-28T14:13:46.670Z,23.31
2023-09-28T14:16:18.676Z,23.24
2023-09-28T14:18:50.469Z,23.28
2023-09-28T14:21:19.493Z,23.27
2023-09-28T14:23:48.564Z,23.25
2023-09-28T14:26:20.086Z,23.24
2023-09-28T14:28:47.581Z,23.23
2023-09-28T14:31:19.128Z,23.20
2023-09-28T14:33:50.774Z,23.17
2023-09-28T14:36:17.698Z,23.14
2023-09-28T14:38:44.664Z,23.14
2023-09-28T14:41:14.480Z,23.07
2023-09-28T14:43:43.834Z,23.11
2023-09-28T14:46:10.766Z,23.05
2023-09-28T14:48:44.378Z,23.00
2023-09-28T14:51:13.958Z,23.01
2023-09-28T14:53:46.955Z,23.01
2023-09-28T14:56:20.531Z,22.98
2023-09-28T14:58:49.915Z,22.91
2023-09-28T15:01:19.283Z,22.89
2023-09-28T15:03:46.288Z,22.88
2023-09-28T15:06:13.436Z,22.88
2023-09-28T15:08:42.929Z,22.86
2023-09-28T15:11:22.352Z,22.88
2023-09-28T15:13:51.570Z,22.78
2023-09-28T15:16:21.098Z,22.78
2023-09-28T15:18:52.762Z,22.78
2023-09-28T15:21:24.548Z,22.76
2023-09-28T15:23:54.616Z,22.74
2023-09-28T15:26:24.106Z,22.74
2023-09-28T15:28:55.893Z,22.70
2023-09-28T15:31:27.697Z,22.67
2023-09-28T15:33:57.248Z,22.64
2023-09-28T15:36:30.220Z,22.59
2023-09-28T15:38:57.549Z,22.59
2023-09-28T15:41:45.246Z,22.42
2023-09-28T15:44:14.521Z,22.50
2023-09-28T15:46:48.726Z,22.51
2023-09-28T15:49:16.217Z,22.47
2023-09-28T15:51:47.821Z,22.44
2023-09-28T15:54:14.636Z,22.37
2023-09-28T15:56:41.523Z,22.38
2023-09-28T15:59:10.894Z,22.35
2023-09-28T16:01:42.525Z,22.30
2023-09-28T16:04:14.409Z,22.25
2023-09-28T16:06:43.872Z,22.20
2023-09-28T16:09:20.354Z,22.12
2023-09-28T16:11:47.256Z,22.03
2023-09-28T16:14:14.190Z,22.05
2023-09-28T16:16:43.340Z,22.00
2023-09-28T16:19:13.047Z,21.97
2023-09-28T16:21:42.232Z,21.94
2023-09-28T16:24:11.644Z,21.88
2023-09-28T16:26:38.605Z,21.86
2023-09-28T16:29:07.973Z,21.81
2023-09-28T16:31:41.862Z,21.77
2023-09-28T16:34:11.819Z,21.63
2023-09-28T16:36:48.271Z,21.64
2023-09-28T16:39:18.225Z,21.61
2023-09-28T16:41:49.611Z,21.57
2023-09-28T16:44:21.003Z,21.53
2023-09-28T16:46:51.396Z,21.50
2023-09-28T16:49:22.946Z,21.46
2023-09-28T16:51:49.870Z,21.41
2023-09-28T16:54:18.864Z,21.31
2023-09-28T16:56:45.769Z,21.24
2023-09-28T16:59:17.554Z,21.25
2023-09-28T17:01:49.142Z,21.14
2023-09-28T17:04:18.618Z,21.14
2023-09-28T17:06:48.006Z,21.10
2023-09-28T17:09:19.626Z,20.95
2023-09-28T17:11:51.736Z,20.92
2023-09-28T17:14:23.328Z,20.85
2023-09-28T17:16:52.328Z,20.73
2023-09-28T17:19:19.558Z,20.72
2023-09-28T17:21:46.430Z,20.57
2023-09-28T17:24:20.739Z,20.57
2023-09-28T17:26:47.587Z,20.43
2023-09-28T17:29:16.934Z,20.47
2023-09-28T17:31:51.412Z,20.47
2023-09-28T17:34:18.314Z,20.43
2023-09-28T17:36:48.908Z,20.37
2023-09-28T17:39:17.978Z,20.34
2023-09-28T17:41:49.576Z,20.28
2023-09-28T17:44:21.886Z,20.17
2023-09-28T17:46:51.116Z,20.13
2023-09-28T17:49:20.174Z,20.04
2023-09-28T17:51:51.725Z,19.98
2023-09-28T17:54:21.117Z,19.92
2023-09-28T17:56:48.111Z,19.85
2023-09-28T17:59:21.419Z,19.71
2023-09-28T18:01:53.116Z,19.66
2023-09-28T18:04:22.350Z,19.59
2023-09-28T18:06:51.592Z,19.54
2023-09-28T18:09:22.203Z,19.46
2023-09-28T18:11:51.486Z,19.42
2023-09-28T18:14:18.444Z,19.33
2023-09-28T18:16:45.712Z,19.31
2023-09-28T18:19:17.312Z,19.30
2023-09-28T18:21:46.758Z,19.18
2023-09-28T18:24:15.833Z,19.19
2023-09-28T18:26:45.282Z,19.02
2023-09-28T18:29:14.267Z,19.14
2023-09-28T18:31:50.846Z,19.10
2023-09-28T18:34:19.855Z,19.04
2023-09-28T18:36:49.209Z,19.03
2023-09-28T18:39:22.807Z,19.00
2023-09-28T18:41:52.107Z,18.96
2023-09-28T18:44:23.812Z,18.89
2023-09-28T18:46:52.945Z,18.79
2023-09-28T18:49:22.308Z,18.77
2023-09-28T18:51:56.315Z,18.72
2023-09-28T18:54:31.043Z,18.66
2023-09-28T18:57:02.429Z,18.59
2023-09-28T18:59:29.347Z,18.52
2023-09-28T19:02:01.446Z,18.44
2023-09-28T19:04:35.682Z,18.39
2023-09-28T19:07:03.177Z,18.25
2023-09-28T19:09:34.553Z,18.29
2023-09-28T19:12:02.472Z,18.22
2023-09-28T19:14:29.639Z,18.17
2023-09-28T19:17:03.390Z,18.14
2023-09-28T19:19:34.993Z,18.11
2023-09-28T19:22:04.319Z,17.98
2023-09-28T19:24:33.400Z,18.00
2023-09-28T19:27:03.889Z,17.96
2023-09-28T19:29:38.497Z,17.83
2023-09-28T19:32:06.369Z,17.82
2023-09-28T19:34:37.854Z,17.73
2023-09-28T19:37:09.026Z,17.63
2023-09-28T19:39:43.269Z,17.51
2023-09-28T19:42:13.094Z,17.51
2023-09-28T19:44:48.159Z,17.33
2023-09-28T19:47:17.118Z,17.37
2023-09-28T19:49:44.182Z,17.26
2023-09-28T19:52:14.027Z,17.26
2023-09-28T19:54:43.434Z,17.20
2023-09-28T19:57:12.553Z,17.13
2023-09-28T19:59:49.840Z,17.02
2023-09-28T20:02:21.727Z,16.92
2023-09-28T20:04:48.640Z,16.95
2023-09-28T20:07:20.224Z,16.81
2023-09-28T20:09:49.301Z,16.92
2023-09-28T20:12:17.654Z,16.82
2023-09-28T20:14:49.635Z,16.81
2023-09-28T20:17:23.710Z,16.77
2023-09-28T20:19:58.061Z,16.80
2023-09-28T20:22:38.338Z,16.77
2023-09-28T20:25:15.361Z,16.73
2023-09-28T20:27:47.090Z,16.72
2023-09-28T20:30:17.973Z,16.70
2023-09-28T20:32:47.992Z,16.62
2023-09-28T20:35:17.602Z,16.53
2023-09-28T20:37:48.755Z,16.63
2023-09-28T20:40:18.140Z,16.56
2023-09-28T20:42:45.892Z,16.49
2023-09-28T20:45:13.317Z,16.46
2023-09-28T20:47:42.526Z,16.50
2023-09-28T20:50:16.167Z,16.51
2023-09-28T20:52:43.191Z,16.38
2023-09-28T20:55:10.994Z,16.44
2023-09-28T20:57:42.724Z,16.34
2023-09-28T21:00:15.146Z,16.39
2023-09-28T21:02:49.498Z,16.34
2023-09-28T21:05:26.654Z,16.29
2023-09-28T21:07:58.180Z,16.28
2023-09-28T21:10:30.293Z,16.19
2023-09-28T21:13:02.570Z,16.23
2023-09-28T21:15:31.942Z,16.20
2023-09-28T21:18:06.234Z,16.20
2023-09-28T21:20:35.459Z,16.17
2023-09-28T21:23:02.330Z,16.11
2023-09-28T21:25:31.420Z,16.13
2023-09-28T21:28:02.878Z,16.12
2023-09-28T21:30:32.056Z,16.06
2023-09-28T21:33:01.561Z,15.99
2023-09-28T21:35:28.795Z,16.00
2023-09-28T21:38:00.417Z,15.95
2023-09-28T21:40:30.069Z,15.94
2023-09-28T21:42:59.247Z,15.76
2023-09-28T21:45:28.527Z,15.82
2023-09-28T21:47:55.826Z,15.77
2023-09-28T21:50:24.978Z,15.69
2023-09-28T21:52:58.942Z,15.69
2023-09-28T21:55:28.301Z,15.67
2023-09-28T21:57:58.176Z,15.64
2023-09-28T22:00:33.615Z,15.62
2023-09-28T22:03:04.816Z,15.59
2023-09-28T22:05:36.978Z,15.53
2023-09-28T22:08:11.370Z,15.56
2023-09-28T22:10:44.776Z,15.54
2023-09-28T22:13:13.862Z,15.52
2023-09-28T22:15:46.528Z,15.47
2023-09-28T22:18:19.139Z,15.46
2023-09-28T22:20:48.306Z,15.43
2023-09-28T22:23:20.432Z,15.44
2023-09-28T22:25:52.646Z,15.42
2023-09-28T22:28:22.085Z,15.32
2023-09-28T22:30:49.073Z,15.39
2023-09-28T22:33:20.936Z,15.39
2023-09-28T22:35:48.016Z,15.36
2023-09-28T22:38:20.729Z,15.33
2023-09-28T22:40:54.993Z,15.29
2023-09-28T22:43:26.342Z,15.27
2023-09-28T22:45:58.680Z,15.34
2023-09-28T22:48:30.649Z,15.32
2023-09-28T22:51:07.242Z,15.29
2023-09-28T22:53:44.311Z,15.27
2023-09-28T22:56:15.601Z,15.18
2023-09-28T22:58:44.940Z,15.23
2023-09-28T23:01:14.166Z,15.16
2023-09-28T23:03:43.544Z,15.12
2023-09-28T23:06:10.449Z,15.19
2023-09-28T23:08:37.395Z,15.15
2023-09-28T23:11:12.167Z,15.13
2023-09-28T23:13:42.264Z,15.04
2023-09-28T23:16:10.311Z,15.08
2023-09-28T23:18:39.391Z,14.97
2023-09-28T23:21:10.982Z,15.04
2023-09-28T23:23:39.855Z,15.05
2023-09-28T23:26:11.924Z,15.01
2023-09-28T23:28:43.662Z,15.02
2023-09-28T23:31:15.013Z,14.95
2023-09-28T23:33:44.575Z,14.98
2023-09-28T23:36:16.835Z,14.88
2023-09-28T23:38:47.810Z,14.88
2023-09-28T23:41:21.737Z,14.92
2023-09-28T23:43:48.580Z,14.90
2023-09-28T23:46:15.660Z,14.85
2023-09-28T23:48:42.776Z,14.85
2023-09-28T23:51:11.010Z,14.83
2023-09-28T23:53:41.495Z,14.78
2023-09-28T23:56:08.568Z,14.75
2023-09-28T23:58:38.535Z,14.70
